Rankin Inlet Airport
CYRT : now visible

Airfield :











YOU CAN JOIN US ON...

 
LOGIN :

Register | Disclaimer

   EN    FR    IT 

 









Legend :    VFR   Marginal VFR   IFR   Intensive IFR   Very Intensive IFR
Visi :
Ceiling :
>= 8 km
>= 3000ft
5 to 8 km
1000 to 3000 ft
1500m to 5 km
500 to 1000 ft
800 to 1500m
200 to 500 ft
< 800m
< 200 ft
Symbols :   Thunderstorms  Fog  Heavy snow  Heavy precipitations  Wind > 20 kt







- Airport Elevation : 94 ft
- IATA code : YRT


CYRT - Rankin Inlet

CURRENT METAR :
  • 211600Z 08017KT 6SM -RA BR BKN006 OVC024 07/07 A2950 RMK SC7SC1 SLP994

EXPIRED METARs :
  • 211500Z 08015G22KT 6SM -RA BR BKN005 OVC018 07/07 A2951 RMK ST7SC1 SLP998
  • 211450Z 08016G24KT 6SM -RA BR BKN004 OVC018 07/07 A2952 RMK ST7SC1 SLP999

TAF AMD TAF CYRT
Valid from the 21 at 13:00 until the 22 at 00:00 UTC


211320Z 2113/2124 08015G25KT 1SM -RA BR OVC002
TEMPO 2113/2121 6SM -DZ BR OVC005
BECMG 2118/2120 06020G30KT
FM212100 06020G30KT 2SM -RA BR OVC004
TEMPO 2121/2124 6SM -RA BR OVC008 RMK NXT FCST BY 211800Z
No reported NOTAMs for that airfield.



MET'MAP, your aeronautical weather chart ! - Copyright ORBIFLY December 2007 - Disclaimer

ORBIFLY MET'MAP TEAM :

Programming & Development : Alexandra Zaïnal
Concept & Development : Baudouin d'Aumeries
Co-Development & Prog : Marc-Olivier Méhu
Technical & hardware support : Manuel Goepfert

Contact : metmap@orbifly.com




SOURCES & CREDITS :

   NOAA       Earth
Advisory